Time;durP1;ratioP1;P1;durP2;ratioP2;P2;SDS_P1;SDS_P2;PMS_P1;PMS_P2;Temp;Humidity;BMP_temperature;BMP_pressure;BME280_temperature;BME280_humidity;BME280_pressure;Samples;Min_cycle;Max_cycle;Signal;HPM_P1;HPM_P2
2022/11/17 00:01:57;;;;;;;8.47;3.70;;;13.20;99.90;;;;;;5054025;28;20184;-68
2022/11/17 00:04:25;;;;;;;3.73;3.53;;;13.30;99.90;;;;;;5054162;28;20924;-68
2022/11/17 00:06:53;;;;;;;5.10;4.10;;;13.30;99.90;;;;;;5053220;28;20487;-68
2022/11/17 00:09:19;;;;;;;4.80;3.63;;;13.30;99.90;;;;;;5053821;28;20424;-68
2022/11/17 00:14:35;;;;;;;5.00;3.20;;;13.30;99.90;;;;;;5033646;28;20524;-69
2022/11/17 00:17:12;;;;;;;5.60;3.43;;;13.30;99.90;;;;;;5034031;28;20541;-68
2022/11/17 00:22:23;;;;;;;4.37;3.97;;;13.00;99.90;;;;;;5033984;28;20409;-68
2022/11/17 00:24:49;;;;;;;5.47;3.97;;;13.00;99.90;;;;;;5051025;28;20439;-68
2022/11/17 00:27:16;;;;;;;4.00;3.70;;;13.00;99.90;;;;;;5030738;28;20430;-68
2022/11/17 00:29:42;;;;;;;6.37;4.10;;;12.90;99.90;;;;;;5015392;28;20184;-68
2022/11/17 00:34:56;;;;;;;4.37;4.03;;;12.80;99.90;;;;;;5032909;28;20181;-68
2022/11/17 00:37:22;;;;;;;5.23;4.23;;;12.80;99.90;;;;;;5033628;28;20480;-68
2022/11/17 00:39:47;;;;;;;3.80;3.50;;;12.80;99.90;;;;;;5032562;28;20522;-68
2022/11/17 00:42:13;;;;;;;3.63;3.33;;;12.90;99.90;;;;;;5033406;28;20210;-68
2022/11/17 00:44:39;;;;;;;4.53;4.17;;;12.90;99.90;;;;;;5041297;28;20184;-68
2022/11/17 00:47:04;;;;;;;3.50;3.20;;;12.80;99.90;;;;;;5053421;28;20265;-68
2022/11/17 00:49:30;;;;;;;4.57;3.70;;;12.80;99.90;;;;;;5053066;28;20178;-68
2022/11/17 00:51:56;;;;;;;4.10;3.77;;;12.80;99.90;;;;;;5052494;28;20621;-68
2022/11/17 00:54:22;;;;;;;5.30;3.90;;;12.90;99.90;;;;;;5052555;28;20187;-68
2022/11/17 00:56:48;;;;;;;5.83;3.73;;;12.80;99.90;;;;;;5051466;28;20555;-68
2022/11/17 00:59:14;;;;;;;3.80;3.60;;;12.70;99.90;;;;;;5052194;28;20516;-68
2022/11/17 01:01:41;;;;;;;4.10;3.80;;;12.70;99.90;;;;;;5051931;28;20423;-68
2022/11/17 01:04:07;;;;;;;4.40;3.80;;;12.70;99.90;;;;;;5053003;28;20414;-68
2022/11/17 01:06:44;;;;;;;4.27;3.50;;;12.80;99.90;;;;;;5052616;28;20564;-69
2022/11/17 01:09:14;;;;;;;4.10;3.67;;;12.70;99.90;;;;;;5052721;28;20418;-68
2022/11/17 01:11:41;;;;;;;3.30;3.10;;;12.70;99.90;;;;;;5052364;28;20513;-69
2022/11/17 01:14:10;;;;;;;4.33;3.97;;;12.60;99.90;;;;;;5052571;28;20408;-68
2022/11/17 01:16:35;;;;;;;3.77;3.00;;;12.50;99.90;;;;;;5052363;28;20492;-69
2022/11/17 01:19:02;;;;;;;3.50;3.20;;;12.50;99.90;;;;;;5046387;28;20945;-68
2022/11/17 01:21:29;;;;;;;3.97;3.57;;;12.40;99.90;;;;;;5032395;28;20187;-68
2022/11/17 01:23:57;;;;;;;5.17;3.13;;;12.40;99.90;;;;;;5044886;28;20435;-68
2022/11/17 01:26:25;;;;;;;3.90;3.50;;;12.40;99.90;;;;;;5052618;28;20407;-68
2022/11/17 01:28:51;;;;;;;3.20;3.03;;;12.40;99.90;;;;;;5052069;28;20413;-68
2022/11/17 01:31:20;;;;;;;3.87;3.57;;;12.40;99.90;;;;;;5051960;28;20426;-68
2022/11/17 01:33:46;;;;;;;3.73;3.43;;;12.40;99.90;;;;;;5051692;28;20416;-68
2022/11/17 01:36:17;;;;;;;3.73;3.53;;;12.40;99.90;;;;;;5039321;28;20914;-68
2022/11/17 01:38:44;;;;;;;3.73;3.53;;;12.50;99.90;;;;;;5031847;28;20414;-68
2022/11/17 01:41:18;;;;;;;5.17;3.53;;;12.50;99.90;;;;;;5032612;28;20423;-67
2022/11/17 01:43:51;;;;;;;3.80;3.53;;;12.40;99.90;;;;;;5031697;28;20414;-68
2022/11/17 01:46:31;;;;;;;3.20;2.97;;;12.60;99.90;;;;;;5032384;28;20409;-68
2022/11/17 01:49:05;;;;;;;3.43;3.13;;;12.50;99.90;;;;;;5031469;28;20493;-68
2022/11/17 01:51:35;;;;;;;4.97;3.10;;;12.60;99.90;;;;;;5032447;28;20462;-68
2022/11/17 01:54:01;;;;;;;3.70;3.40;;;12.60;99.90;;;;;;5033543;28;20434;-68
2022/11/17 01:56:33;;;;;;;3.60;3.30;;;12.60;99.90;;;;;;5052139;28;20455;-68
2022/11/17 01:59:24;;;;;;;4.70;3.00;;;12.70;99.90;;;;;;5051494;28;20465;-68
2022/11/17 02:01:55;;;;;;;4.03;3.23;;;12.70;99.90;;;;;;5040253;28;20433;-68
2022/11/17 02:04:29;;;;;;;2.87;2.67;;;12.70;99.90;;;;;;5052174;28;20400;-68
2022/11/17 02:07:13;;;;;;;3.00;2.80;;;12.70;99.90;;;;;;5051087;28;20508;-68
2022/11/17 02:09:39;;;;;;;3.60;3.27;;;12.70;99.90;;;;;;5033521;28;20417;-69
2022/11/17 02:12:08;;;;;;;3.17;2.90;;;12.60;99.90;;;;;;5034384;28;20914;-68
2022/11/17 02:14:35;;;;;;;3.17;2.90;;;12.70;99.90;;;;;;5052109;28;20880;-68
2022/11/17 02:17:07;;;;;;;3.30;3.10;;;12.50;99.90;;;;;;5051277;28;20463;-68
2022/11/17 02:19:37;;;;;;;3.83;3.63;;;12.60;99.90;;;;;;5041870;28;20811;-68
2022/11/17 02:22:17;;;;;;;3.73;2.97;;;12.40;99.90;;;;;;5031350;28;20488;-68
2022/11/17 02:25:18;;;;;;;4.90;3.57;;;12.30;99.90;;;;;;5031345;28;20759;-68
2022/11/17 02:27:52;;;;;;;3.00;2.80;;;12.20;99.90;;;;;;5032032;28;20416;-68
2022/11/17 02:30:20;;;;;;;2.87;2.67;;;12.30;99.90;;;;;;5032132;28;20487;-68
2022/11/17 02:32:49;;;;;;;3.07;2.90;;;12.20;99.90;;;;;;5043388;28;20433;-68
2022/11/17 02:35:29;;;;;;;3.23;2.73;;;12.10;99.90;;;;;;5056066;28;20420;-68
2022/11/17 02:38:31;;;;;;;3.03;2.87;;;12.10;99.90;;;;;;5055313;28;20533;-67
2022/11/17 02:41:17;;;;;;;3.50;3.20;;;12.00;99.90;;;;;;5051455;28;20431;-68
2022/11/17 02:44:04;;;;;;;5.00;3.77;;;12.00;99.90;;;;;;5045932;28;20424;-69
2022/11/17 02:46:36;;;;;;;3.20;2.90;;;12.00;99.90;;;;;;5035638;28;20827;-67
2022/11/17 02:49:15;;;;;;;3.30;3.07;;;12.00;99.90;;;;;;5034993;28;20382;-67
2022/11/17 02:51:42;;;;;;;2.97;2.77;;;12.00;99.90;;;;;;5035506;28;20454;-68
2022/11/17 02:54:10;;;;;;;4.20;2.77;;;12.10;99.90;;;;;;5052124;28;20439;-67
2022/11/17 02:56:43;;;;;;;2.90;2.80;;;12.10;99.90;;;;;;5055180;28;20946;-67
2022/11/17 02:59:12;;;;;;;5.43;3.10;;;11.90;99.90;;;;;;5055723;28;20415;-67
2022/11/17 03:01:41;;;;;;;3.70;3.37;;;12.00;99.90;;;;;;5038290;28;20430;-67
2022/11/17 03:04:30;;;;;;;3.33;3.10;;;12.10;99.90;;;;;;5035021;28;20495;-67
2022/11/17 03:07:35;;;;;;;3.00;2.90;;;12.10;99.90;;;;;;5034463;28;20474;-68
2022/11/17 03:10:00;;;;;;;3.37;3.17;;;12.00;99.90;;;;;;5030774;28;20571;-68
2022/11/17 03:12:40;;;;;;;3.40;3.20;;;12.00;99.90;;;;;;5035338;28;20493;-68
2022/11/17 03:15:12;;;;;;;3.10;2.90;;;11.90;99.90;;;;;;5035015;28;20174;-68
2022/11/17 03:18:03;;;;;;;3.13;2.97;;;12.00;99.90;;;;;;5035728;28;20457;-68
2022/11/17 03:20:57;;;;;;;3.10;2.90;;;12.00;99.90;;;;;;5035110;28;20453;-67
2022/11/17 03:23:43;;;;;;;2.80;2.70;;;11.90;99.90;;;;;;5050966;28;20787;-68
2022/11/17 03:26:14;;;;;;;3.20;2.90;;;11.80;99.90;;;;;;5054806;28;20434;-67
2022/11/17 03:28:42;;;;;;;3.17;3.07;;;11.70;99.90;;;;;;5055004;28;20388;-68
2022/11/17 03:31:10;;;;;;;4.70;2.90;;;11.70;99.90;;;;;;5054469;28;20454;-68
2022/11/17 03:33:38;;;;;;;2.90;2.80;;;11.70;99.90;;;;;;5054182;28;20417;-68
2022/11/17 03:36:10;;;;;;;2.60;2.50;;;11.60;99.90;;;;;;5016030;28;21050;-68
2022/11/17 03:38:39;;;;;;;3.00;2.80;;;11.60;99.90;;;;;;5034905;28;20404;-68
2022/11/17 03:41:08;;;;;;;2.83;2.73;;;11.70;99.90;;;;;;5033903;28;20474;-68
2022/11/17 03:43:36;;;;;;;2.67;2.50;;;11.80;99.90;;;;;;5033692;28;20407;-68
2022/11/17 03:46:07;;;;;;;3.67;3.37;;;11.80;99.90;;;;;;5033879;28;20411;-68
2022/11/17 03:48:38;;;;;;;2.63;2.53;;;11.70;99.90;;;;;;5035685;28;20906;-68
2022/11/17 03:51:09;;;;;;;2.60;2.50;;;11.70;99.90;;;;;;5053106;28;20500;-68
2022/11/17 03:53:35;;;;;;;2.77;2.63;;;11.80;99.90;;;;;;5054266;28;20756;-67
2022/11/17 03:56:22;;;;;;;2.83;2.73;;;11.80;99.90;;;;;;5053193;28;20422;-68
2022/11/17 03:59:19;;;;;;;2.70;2.60;;;11.80;99.90;;;;;;5053383;28;20767;-68
2022/11/17 04:01:45;;;;;;;2.90;2.80;;;11.70;99.90;;;;;;5046588;28;20423;-68
2022/11/17 04:04:19;;;;;;;2.90;2.80;;;11.80;99.90;;;;;;5053971;28;20416;-68
2022/11/17 04:06:46;;;;;;;3.00;2.90;;;11.80;99.90;;;;;;5053479;28;20231;-69
2022/11/17 04:09:12;;;;;;;2.77;2.67;;;11.90;99.90;;;;;;5053161;28;20432;-68
2022/11/17 04:17:06;;;;;;;2.77;2.67;;;11.60;99.90;;;;;;5053154;28;20439;-68
2022/11/17 04:19:32;;;;;;;3.00;2.90;;;11.70;99.90;;;;;;5053192;28;20443;-67
2022/11/17 04:21:57;;;;;;;3.27;3.07;;;11.60;99.90;;;;;;5052854;28;20179;-68
2022/11/17 04:24:23;;;;;;;3.13;3.03;;;11.60;99.90;;;;;;5053846;28;20175;-68
2022/11/17 04:29:33;;;;;;;2.90;2.80;;;11.60;99.90;;;;;;5033931;28;20173;-68
2022/11/17 04:31:59;;;;;;;2.70;2.60;;;11.70;99.90;;;;;;5032943;28;20762;-68
2022/11/17 04:34:25;;;;;;;2.70;2.60;;;11.70;99.90;;;;;;5016128;28;20421;-68
2022/11/17 04:36:51;;;;;;;2.67;2.57;;;11.70;99.90;;;;;;5032943;28;20213;-68
2022/11/17 04:39:16;;;;;;;3.10;2.90;;;11.80;99.90;;;;;;5033908;28;20178;-67
2022/11/17 04:42:02;;;;;;;3.57;2.50;;;11.80;99.90;;;;;;5034169;28;20216;-68
2022/11/17 04:44:29;;;;;;;2.80;2.70;;;11.90;99.90;;;;;;5033641;28;20415;-67
2022/11/17 04:46:56;;;;;;;2.70;2.50;;;12.00;99.90;;;;;;5032648;28;20406;-68
2022/11/17 04:49:24;;;;;;;2.77;2.37;;;11.80;99.90;;;;;;5040513;28;20516;-68
2022/11/17 04:51:51;;;;;;;3.10;2.80;;;11.70;99.90;;;;;;5052557;28;20440;-68
2022/11/17 04:54:19;;;;;;;2.70;2.60;;;11.80;99.90;;;;;;5053050;28;20872;-68
2022/11/17 04:56:46;;;;;;;2.63;2.53;;;11.70;99.90;;;;;;5052461;28;20479;-68
2022/11/17 04:59:12;;;;;;;2.57;2.47;;;11.70;99.90;;;;;;5047459;28;20432;-67
2022/11/17 05:01:38;;;;;;;2.40;2.30;;;11.70;99.90;;;;;;5033265;28;20444;-68
2022/11/17 05:04:09;;;;;;;3.20;2.37;;;11.80;99.90;;;;;;5032385;28;20431;-68
2022/11/17 05:06:41;;;;;;;2.40;2.30;;;11.70;99.90;;;;;;5032647;28;20758;-69
2022/11/17 05:09:12;;;;;;;3.63;3.43;;;11.70;99.90;;;;;;5032320;28;20425;-69
2022/11/17 05:14:24;;;;;;;3.03;2.93;;;11.80;99.90;;;;;;5033167;28;20408;-68
2022/11/17 05:17:05;;;;;;;2.80;2.70;;;11.80;99.90;;;;;;5032910;28;20951;-71
2022/11/17 05:19:45;;;;;;;2.60;2.50;;;11.90;99.90;;;;;;5041506;28;20472;-68
2022/11/17 05:24:58;;;;;;;2.70;2.60;;;11.90;99.90;;;;;;5052158;28;20795;-69
2022/11/17 05:27:23;;;;;;;2.70;2.60;;;12.00;99.90;;;;;;5052710;28;20400;-69
2022/11/17 05:29:49;;;;;;;3.30;3.10;;;12.10;99.90;;;;;;5052416;28;20421;-71
2022/11/17 05:32:16;;;;;;;2.70;2.60;;;12.00;99.90;;;;;;5052035;28;20215;-69
2022/11/17 05:34:41;;;;;;;2.70;2.60;;;12.00;99.90;;;;;;5035223;28;20939;-69
2022/11/17 05:37:07;;;;;;;3.30;3.10;;;12.10;99.90;;;;;;5031650;28;20561;-69
2022/11/17 05:39:33;;;;;;;3.57;3.43;;;12.10;99.90;;;;;;5032545;28;20233;-69
2022/11/17 05:41:58;;;;;;;2.53;2.43;;;12.10;99.90;;;;;;5031691;28;20227;-69
2022/11/17 05:44:24;;;;;;;2.70;2.40;;;12.30;99.90;;;;;;5032505;28;20176;-68
2022/11/17 05:46:49;;;;;;;3.17;2.97;;;12.20;99.90;;;;;;5032018;28;20269;-70
2022/11/17 05:49:15;;;;;;;2.57;2.37;;;12.30;99.90;;;;;;5038261;28;20536;-68
2022/11/17 05:51:41;;;;;;;3.40;2.70;;;12.20;99.90;;;;;;5048007;28;20194;-69
2022/11/17 05:54:06;;;;;;;2.77;2.43;;;12.30;99.90;;;;;;5026504;28;20188;-69
2022/11/17 05:57:11;;;;;;;3.07;2.80;;;12.40;99.90;;;;;;5047224;28;20696;-68
2022/11/17 05:59:59;;;;;;;4.23;3.90;;;12.40;99.90;;;;;;5034467;28;20254;-69
2022/11/17 06:02:29;;;;;;;3.40;3.10;;;12.40;99.90;;;;;;5052381;28;20403;-68
2022/11/17 06:04:55;;;;;;;3.40;2.90;;;12.40;99.90;;;;;;5051448;28;20574;-69
2022/11/17 06:07:21;;;;;;;3.70;2.87;;;12.30;99.90;;;;;;5045214;28;20555;-69
2022/11/17 06:09:47;;;;;;;3.97;3.40;;;12.30;99.90;;;;;;5032422;28;20186;-68
2022/11/17 06:12:14;;;;;;;4.07;3.67;;;12.30;99.90;;;;;;5031413;28;20177;-68
2022/11/17 06:14:39;;;;;;;5.00;3.27;;;12.20;99.90;;;;;;5032190;28;20178;-68
2022/11/17 06:17:10;;;;;;;4.33;3.80;;;12.20;99.90;;;;;;5031481;28;20456;-69
2022/11/17 06:19:45;;;;;;;4.30;3.90;;;12.10;99.90;;;;;;5039765;28;20251;-68
2022/11/17 06:22:11;;;;;;;4.23;3.73;;;12.10;99.90;;;;;;5036519;28;20627;-68
2022/11/17 06:24:38;;;;;;;4.90;4.27;;;12.20;99.90;;;;;;5039133;28;20416;-67
2022/11/17 06:27:04;;;;;;;3.20;3.03;;;12.20;99.90;;;;;;5031803;28;20187;-68
2022/11/17 06:29:30;;;;;;;5.10;4.60;;;12.20;99.90;;;;;;5032401;28;20408;-67
2022/11/17 06:31:58;;;;;;;4.10;3.70;;;12.20;99.90;;;;;;5031743;28;20501;-67
2022/11/17 06:34:25;;;;;;;4.57;4.00;;;12.20;99.90;;;;;;5032474;28;20409;-68
2022/11/17 06:36:52;;;;;;;5.40;3.73;;;12.20;99.90;;;;;;5042395;28;20462;-69
2022/11/17 06:39:21;;;;;;;4.53;4.00;;;12.20;99.90;;;;;;5032281;28;20440;-68
2022/11/17 06:41:46;;;;;;;3.23;3.03;;;12.30;99.90;;;;;;5041993;28;20424;-68
2022/11/17 06:44:12;;;;;;;3.73;3.20;;;12.10;99.90;;;;;;5051545;28;20790;-68
2022/11/17 06:46:38;;;;;;;3.93;3.10;;;12.20;99.90;;;;;;5051488;28;20620;-69
2022/11/17 06:49:06;;;;;;;4.33;3.93;;;12.10;99.90;;;;;;5046678;28;20189;-69
2022/11/17 06:51:34;;;;;;;4.47;4.10;;;12.10;99.90;;;;;;5034136;28;20178;-69
2022/11/17 06:54:00;;;;;;;3.70;3.40;;;12.10;99.90;;;;;;5033211;28;20412;-70
2022/11/17 06:56:27;;;;;;;3.27;2.93;;;12.20;99.90;;;;;;5051833;28;20505;-69
2022/11/17 06:58:53;;;;;;;4.30;3.90;;;12.10;99.90;;;;;;5023218;28;20506;-69
2022/11/17 07:01:18;;;;;;;3.73;3.43;;;11.90;99.90;;;;;;5031227;28;20410;-70
2022/11/17 07:03:44;;;;;;;4.17;3.80;;;12.00;99.90;;;;;;5042108;28;20907;-71
2022/11/17 07:06:11;;;;;;;5.30;4.00;;;11.90;99.90;;;;;;5045850;28;20181;-69
2022/11/17 07:08:37;;;;;;;3.67;3.40;;;12.00;99.90;;;;;;5035550;28;20571;-70
2022/11/17 07:11:04;;;;;;;5.60;3.30;;;11.90;99.90;;;;;;5034206;28;20419;-70
2022/11/17 07:13:35;;;;;;;5.27;4.87;;;11.80;99.90;;;;;;5051848;28;20831;-70
2022/11/17 07:16:07;;;;;;;3.70;3.40;;;11.80;99.90;;;;;;5049761;28;20433;-69
2022/11/17 07:18:33;;;;;;;5.20;3.63;;;11.90;99.90;;;;;;5052601;28;20527;-69
2022/11/17 07:21:04;;;;;;;4.60;3.13;;;11.80;99.90;;;;;;5044181;28;20481;-70
2022/11/17 07:23:33;;;;;;;2.93;2.73;;;11.80;99.90;;;;;;5055381;28;20535;-69
2022/11/17 07:26:00;;;;;;;3.10;2.90;;;11.80;99.90;;;;;;5019491;28;20841;-69
2022/11/17 07:28:27;;;;;;;3.67;3.47;;;12.00;99.90;;;;;;5054410;28;20895;-69
2022/11/17 07:30:53;;;;;;;3.63;3.43;;;11.70;99.90;;;;;;5054041;28;20427;-70
2022/11/17 07:33:19;;;;;;;4.13;3.80;;;11.80;99.90;;;;;;5051546;28;20762;-69
2022/11/17 07:35:44;;;;;;;3.60;3.40;;;11.80;99.90;;;;;;5035960;28;20413;-71
2022/11/17 07:38:10;;;;;;;3.90;3.40;;;12.00;99.90;;;;;;5034159;28;20241;-69
2022/11/17 07:40:36;;;;;;;4.00;3.80;;;12.10;99.90;;;;;;5034871;28;20588;-69
2022/11/17 07:43:02;;;;;;;7.40;6.70;;;12.30;99.90;;;;;;5039301;28;20198;-69
2022/11/17 07:45:28;;;;;;;5.07;3.60;;;12.40;99.90;;;;;;5051442;28;20786;-69
2022/11/17 07:47:58;;;;;;;5.60;4.57;;;12.50;99.90;;;;;;5054930;28;20421;-69
2022/11/17 07:50:25;;;;;;;5.23;4.80;;;12.60;99.90;;;;;;5054024;28;20477;-69
2022/11/17 07:52:53;;;;;;;5.77;5.47;;;12.60;99.90;;;;;;5054869;28;20446;-69
2022/11/17 07:55:20;;;;;;;6.60;4.20;;;12.70;99.90;;;;;;5054123;28;20409;-69
2022/11/17 07:57:45;;;;;;;3.60;3.30;;;12.70;99.90;;;;;;5054737;28;20462;-69
2022/11/17 08:00:12;;;;;;;3.77;3.57;;;12.60;99.90;;;;;;5054090;28;20398;-69
2022/11/17 08:02:39;;;;;;;3.73;3.53;;;12.60;99.90;;;;;;5054640;28;20176;-69
2022/11/17 08:05:05;;;;;;;4.97;3.30;;;12.70;99.90;;;;;;5052929;28;20439;-69
2022/11/17 08:07:31;;;;;;;4.00;3.77;;;12.40;99.90;;;;;;5043226;28;20475;-69
2022/11/17 08:09:57;;;;;;;3.40;3.20;;;12.30;99.90;;;;;;5051763;28;20420;-69
2022/11/17 08:12:22;;;;;;;3.93;2.97;;;12.20;99.90;;;;;;5047596;28;20440;-69
2022/11/17 08:14:48;;;;;;;2.83;2.63;;;12.20;99.90;;;;;;5051356;28;20181;-68
2022/11/17 08:17:15;;;;;;;3.50;3.37;;;12.20;99.90;;;;;;5035222;28;20597;-69
2022/11/17 08:19:40;;;;;;;2.40;2.30;;;12.30;99.90;;;;;;5053542;28;20428;-68
2022/11/17 08:22:06;;;;;;;4.07;2.70;;;12.20;99.90;;;;;;5053114;28;20751;-69
2022/11/17 08:24:32;;;;;;;2.63;2.50;;;12.30;99.90;;;;;;5042622;28;20541;-68
2022/11/17 08:26:57;;;;;;;3.40;3.20;;;12.00;99.90;;;;;;5034965;28;20649;-68
2022/11/17 08:29:23;;;;;;;2.50;2.40;;;11.90;99.90;;;;;;5033952;28;20188;-68
2022/11/17 08:31:49;;;;;;;2.00;1.90;;;12.10;99.90;;;;;;5051514;28;20176;-68
2022/11/17 08:34:15;;;;;;;2.33;2.23;;;12.10;99.90;;;;;;5049282;28;20167;-68
2022/11/17 08:36:41;;;;;;;2.30;2.20;;;12.20;99.90;;;;;;5034204;28;20664;-68
2022/11/17 08:39:07;;;;;;;3.13;2.93;;;12.20;99.90;;;;;;5034513;28;20452;-68
2022/11/17 08:41:32;;;;;;;3.17;2.93;;;12.30;99.90;;;;;;5051919;28;20420;-68
2022/11/17 08:43:58;;;;;;;2.77;2.67;;;12.20;99.90;;;;;;5053343;28;20427;-67
2022/11/17 08:46:25;;;;;;;3.00;2.90;;;12.40;99.90;;;;;;5054511;28;20177;-67
2022/11/17 08:48:51;;;;;;;3.27;2.47;;;12.40;99.90;;;;;;5039812;28;20440;-68
2022/11/17 08:51:17;;;;;;;2.50;2.30;;;12.40;99.90;;;;;;5033245;28;20418;-68
2022/11/17 08:53:42;;;;;;;2.40;2.30;;;12.60;99.90;;;;;;5033431;28;20414;-68
2022/11/17 08:56:10;;;;;;;2.33;2.23;;;12.60;99.90;;;;;;5020617;28;20428;-68
2022/11/17 08:58:43;;;;;;;2.80;2.60;;;12.60;99.90;;;;;;5039043;28;20185;-68
2022/11/17 09:01:14;;;;;;;5.37;2.20;;;12.70;99.90;;;;;;5050968;28;20425;-68
2022/11/17 09:03:42;;;;;;;2.10;1.90;;;12.80;99.90;;;;;;5053492;28;20960;-68
2022/11/17 09:06:08;;;;;;;1.70;1.60;;;12.70;99.90;;;;;;5047858;28;20829;-68
2022/11/17 09:08:34;;;;;;;1.70;1.60;;;12.80;99.90;;;;;;5046009;28;20452;-68
2022/11/17 09:11:08;;;;;;;2.00;1.90;;;12.90;99.90;;;;;;5047069;28;20213;-68
2022/11/17 09:13:34;;;;;;;2.17;2.07;;;12.90;99.90;;;;;;5016007;28;20643;-68
2022/11/17 09:16:01;;;;;;;2.40;2.20;;;12.90;99.90;;;;;;5052306;28;20880;-68
2022/11/17 09:18:27;;;;;;;1.90;1.80;;;12.90;99.90;;;;;;5053118;28;20532;-68
2022/11/17 09:21:01;;;;;;;2.23;2.10;;;12.90;99.90;;;;;;5045547;28;20590;-69
2022/11/17 09:23:28;;;;;;;2.03;1.93;;;12.80;99.90;;;;;;5032288;28;20161;-68
2022/11/17 09:26:21;;;;;;;2.10;2.00;;;12.60;99.90;;;;;;5032861;28;20413;-68
2022/11/17 09:28:47;;;;;;;2.43;2.33;;;12.70;99.90;;;;;;5030715;28;20433;-68
2022/11/17 09:31:17;;;;;;;2.40;2.20;;;12.60;99.90;;;;;;5032164;28;20454;-68
2022/11/17 09:33:42;;;;;;;2.33;2.23;;;12.50;99.90;;;;;;5032406;28;20763;-69
2022/11/17 09:36:09;;;;;;;2.20;2.10;;;12.60;99.90;;;;;;5032212;28;20416;-68
2022/11/17 09:38:36;;;;;;;2.50;2.40;;;12.70;99.90;;;;;;5032727;28;20229;-68
2022/11/17 09:41:15;;;;;;;2.60;2.50;;;12.80;99.90;;;;;;5032356;28;20511;-68
2022/11/17 09:44:02;;;;;;;2.90;2.80;;;12.80;99.90;;;;;;5033006;28;20414;-68
2022/11/17 09:46:50;;;;;;;2.27;2.17;;;13.00;99.90;;;;;;5032741;28;20477;-68
2022/11/17 09:49:36;;;;;;;2.60;2.50;;;13.10;99.90;;;;;;5049503;28;20461;-68
2022/11/17 09:52:21;;;;;;;2.50;2.40;;;13.20;99.90;;;;;;5052810;28;20413;-68
2022/11/17 09:54:54;;;;;;;2.30;2.20;;;13.40;99.90;;;;;;5052736;28;20399;-68
2022/11/17 09:57:26;;;;;;;1.90;1.90;;;13.50;99.90;;;;;;5052033;28;20459;-68
2022/11/17 10:00:05;;;;;;;2.10;2.00;;;13.70;99.90;;;;;;5052695;28;20415;-68
2022/11/17 10:02:32;;;;;;;2.10;2.00;;;13.80;99.90;;;;;;5052913;28;20400;-68
2022/11/17 10:04:58;;;;;;;2.20;2.10;;;13.60;99.90;;;;;;5052659;28;20428;-68
2022/11/17 10:07:25;;;;;;;3.30;1.90;;;13.60;99.90;;;;;;5050159;28;20885;-69
2022/11/17 10:09:52;;;;;;;3.47;1.70;;;13.70;99.90;;;;;;5052252;28;20771;-68
2022/11/17 10:12:25;;;;;;;2.60;2.40;;;13.70;99.90;;;;;;5051829;28;20439;-68
2022/11/17 10:14:52;;;;;;;1.90;1.80;;;13.80;99.90;;;;;;5033608;28;20434;-68
2022/11/17 10:17:18;;;;;;;4.33;1.70;;;13.90;99.90;;;;;;5051732;28;20537;-68
2022/11/17 10:19:44;;;;;;;2.00;2.00;;;14.00;99.90;;;;;;5052318;28;20440;-68
2022/11/17 10:22:26;;;;;;;2.30;2.20;;;13.80;99.90;;;;;;5051809;28;20181;-68
2022/11/17 10:24:54;;;;;;;2.37;2.20;;;13.90;99.90;;;;;;5014810;28;20888;-68
2022/11/17 10:27:26;;;;;;;3.27;2.50;;;14.10;99.90;;;;;;5030670;28;20439;-68
2022/11/17 10:30:04;;;;;;;2.07;1.67;;;13.90;99.90;;;;;;5032388;28;20504;-68
2022/11/17 10:32:45;;;;;;;2.57;2.37;;;13.90;99.90;;;;;;5032100;28;20419;-68
2022/11/17 10:35:26;;;;;;;2.60;2.40;;;13.90;99.90;;;;;;5031844;28;20748;-68
2022/11/17 10:37:57;;;;;;;2.90;2.70;;;13.70;99.90;;;;;;5014566;28;20467;-68
2022/11/17 10:40:50;;;;;;;2.20;2.10;;;13.80;99.90;;;;;;5031588;28;20421;-68
2022/11/17 10:43:29;;;;;;;1.93;1.83;;;13.80;99.90;;;;;;5027322;28;20962;-68
2022/11/17 10:46:05;;;;;;;2.37;2.20;;;13.70;99.90;;;;;;4971150;28;20428;-68
2022/11/17 10:48:36;;;;;;;2.20;2.07;;;13.70;99.90;;;;;;4982132;28;20460;-68
2022/11/17 10:51:20;;;;;;;2.00;1.90;;;13.70;99.90;;;;;;4990095;28;20502;-68
2022/11/17 10:54:05;;;;;;;2.40;2.30;;;13.90;99.90;;;;;;4993395;28;20397;-68
2022/11/17 10:56:42;;;;;;;2.30;2.10;;;13.90;99.90;;;;;;4993569;28;20461;-68
2022/11/17 10:59:12;;;;;;;3.60;2.10;;;13.90;99.90;;;;;;4993689;28;20436;-69
2022/11/17 11:01:43;;;;;;;2.20;2.00;;;13.90;99.90;;;;;;4994180;28;20437;-68
2022/11/17 11:04:41;;;;;;;1.67;1.67;;;13.90;99.90;;;;;;4993400;28;20777;-69
2022/11/17 11:07:22;;;;;;;4.33;2.47;;;14.00;99.90;;;;;;4972251;28;20477;-70
2022/11/17 11:10:03;;;;;;;2.20;2.10;;;13.90;99.90;;;;;;4993927;28;20465;-68
2022/11/17 11:13:05;;;;;;;2.40;2.20;;;13.90;99.90;;;;;;4993358;28;20831;-68
2022/11/17 11:15:34;;;;;;;2.10;2.00;;;13.80;99.90;;;;;;4993327;28;20817;-68
2022/11/17 11:18:00;;;;;;;5.20;2.17;;;13.90;99.90;;;;;;5000710;28;20842;-68
2022/11/17 11:20:55;;;;;;;4.10;2.10;;;13.70;99.90;;;;;;5054601;28;20441;-68
2022/11/17 11:23:49;;;;;;;2.87;2.20;;;13.60;99.90;;;;;;5033269;28;20429;-68
2022/11/17 11:26:46;;;;;;;2.60;2.40;;;13.70;99.90;;;;;;5054897;28;20433;-68
2022/11/17 11:29:27;;;;;;;2.00;1.90;;;13.80;99.90;;;;;;5054473;28;20916;-69
2022/11/17 11:32:10;;;;;;;1.80;1.70;;;13.70;99.90;;;;;;5055630;28;20879;-68
2022/11/17 11:34:54;;;;;;;1.83;1.73;;;13.70;99.90;;;;;;5055142;28;20416;-68
2022/11/17 11:37:28;;;;;;;4.40;1.97;;;13.80;99.90;;;;;;5054673;28;20563;-68
2022/11/17 11:40:15;;;;;;;1.60;1.60;;;14.00;99.90;;;;;;5055300;28;20803;-68
2022/11/17 11:43:01;;;;;;;2.00;1.90;;;14.00;99.90;;;;;;5054884;28;20736;-68
2022/11/17 11:45:48;;;;;;;3.17;1.90;;;14.00;99.90;;;;;;5053745;28;20466;-68
2022/11/17 11:48:25;;;;;;;3.20;2.50;;;14.10;99.90;;;;;;5054049;28;20430;-68
2022/11/17 11:50:54;;;;;;;2.07;1.97;;;14.00;99.90;;;;;;5054066;28;20905;-68
2022/11/17 11:53:50;;;;;;;1.57;1.40;;;14.10;99.90;;;;;;5054229;28;20507;-68
2022/11/17 11:56:19;;;;;;;1.80;1.70;;;14.00;99.90;;;;;;5053534;28;20887;-68
2022/11/17 11:59:20;;;;;;;2.00;1.90;;;13.90;99.90;;;;;;5054128;28;20522;-68
2022/11/17 12:02:04;;;;;;;1.63;1.60;;;13.90;99.90;;;;;;5054626;28;20415;-68
2022/11/17 12:04:45;;;;;;;1.70;1.60;;;13.90;99.90;;;;;;5053443;28;20410;-68
2022/11/17 12:07:42;;;;;;;2.30;2.20;;;13.90;99.90;;;;;;5053974;28;20978;-70
2022/11/17 12:10:28;;;;;;;1.97;1.87;;;14.00;99.90;;;;;;5054541;28;20816;-68
2022/11/17 12:12:53;;;;;;;2.10;2.00;;;14.00;99.90;;;;;;5054609;28;20408;-68
2022/11/17 12:15:19;;;;;;;2.40;2.30;;;13.90;99.90;;;;;;5053811;28;20422;-68
2022/11/17 12:18:17;;;;;;;2.20;1.93;;;13.90;99.90;;;;;;5053090;28;20200;-68
2022/11/17 12:21:00;;;;;;;2.67;2.10;;;13.90;99.90;;;;;;5021557;28;20200;-68
2022/11/17 12:23:47;;;;;;;1.80;1.70;;;13.80;99.90;;;;;;5053729;28;20403;-68
2022/11/17 12:26:30;;;;;;;4.10;3.80;;;13.80;99.90;;;;;;5053917;28;20961;-69
2022/11/17 12:29:20;;;;;;;3.53;2.50;;;13.80;99.90;;;;;;5053762;28;20431;-68
2022/11/17 12:31:51;;;;;;;2.67;2.47;;;13.90;99.90;;;;;;5053879;28;20910;-68
2022/11/17 12:34:34;;;;;;;2.77;2.53;;;13.90;99.90;;;;;;5053477;28;20903;-68
2022/11/17 12:37:20;;;;;;;2.43;2.13;;;14.00;99.90;;;;;;5036186;28;20549;-68
2022/11/17 12:40:05;;;;;;;2.17;2.00;;;14.10;99.90;;;;;;5053850;28;20414;-68
2022/11/17 12:42:33;;;;;;;3.43;3.13;;;14.20;99.90;;;;;;5035461;28;20438;-68
2022/11/17 12:45:00;;;;;;;2.73;2.30;;;14.20;99.90;;;;;;5053836;28;20412;-68
2022/11/17 12:47:45;;;;;;;2.20;2.10;;;14.20;99.90;;;;;;5052758;28;20441;-68
2022/11/17 12:50:19;;;;;;;1.83;1.73;;;14.30;99.90;;;;;;5036233;28;20426;-68
2022/11/17 12:52:45;;;;;;;2.40;2.30;;;14.30;99.90;;;;;;5053742;28;20415;-69
2022/11/17 12:55:16;;;;;;;5.13;2.30;;;14.30;99.90;;;;;;5053361;28;20546;-68
2022/11/17 12:57:45;;;;;;;1.67;1.60;;;14.40;99.90;;;;;;5053611;28;20200;-68
2022/11/17 13:00:20;;;;;;;2.37;2.27;;;14.40;99.90;;;;;;5053615;28;20467;-68
2022/11/17 13:02:56;;;;;;;3.03;1.90;;;14.50;99.90;;;;;;5053592;28;20534;-68
2022/11/17 13:05:27;;;;;;;1.90;1.73;;;14.40;99.90;;;;;;5052768;28;20881;-68
2022/11/17 13:08:20;;;;;;;1.77;1.53;;;14.40;99.90;;;;;;5052868;28;20535;-68
2022/11/17 13:10:46;;;;;;;2.23;1.80;;;14.40;99.90;;;;;;5053561;28;20832;-68
2022/11/17 13:13:20;;;;;;;1.80;1.70;;;14.40;99.90;;;;;;5053370;28;20440;-68
2022/11/17 13:15:58;;;;;;;1.90;1.80;;;14.10;99.90;;;;;;5051989;28;20178;-68
2022/11/17 13:18:38;;;;;;;1.70;1.60;;;14.20;99.90;;;;;;5052590;28;20815;-68
2022/11/17 13:21:25;;;;;;;3.07;2.67;;;14.20;99.90;;;;;;5051078;28;20478;-68
2022/11/17 13:23:52;;;;;;;6.03;3.03;;;14.10;99.90;;;;;;5053307;28;20488;-69
2022/11/17 13:26:21;;;;;;;2.60;2.43;;;14.10;99.90;;;;;;5052543;28;20409;-68
2022/11/17 13:29:00;;;;;;;2.20;2.10;;;14.10;99.90;;;;;;5053084;28;20522;-68
2022/11/17 13:31:26;;;;;;;2.60;2.50;;;14.00;99.90;;;;;;5036261;28;20743;-68
2022/11/17 13:34:09;;;;;;;2.60;2.40;;;14.10;99.90;;;;;;5053111;28;20415;-68
2022/11/17 13:36:35;;;;;;;1.83;1.70;;;14.10;99.90;;;;;;5052034;28;20177;-68